Time;durP1;ratioP1;P1;durP2;ratioP2;P2;SDS_P1;SDS_P2;PMS_P1;PMS_P2;Temp;Humidity;BMP_temperature;BMP_pressure;BME280_temperature;BME280_humidity;BME280_pressure;Samples;Min_cycle;Max_cycle;Signal;HPM_P1;HPM_P2
2023/04/19 00:00:46;;;;;;;32.67;21.27;;;9.60;1.00;;;;;;8337153;28;20200;-68
2023/04/19 00:05:03;;;;;;;40.10;24.20;;;9.50;1.00;;;;;;8330045;28;20301;-68
2023/04/19 00:09:22;;;;;;;18.23;12.80;;;9.50;1.00;;;;;;8338158;28;20232;-68
2023/04/19 00:13:35;;;;;;;18.03;14.30;;;9.50;1.00;;;;;;8337335;28;20188;-69
2023/04/19 00:17:51;;;;;;;29.43;20.67;;;9.40;1.00;;;;;;8331753;28;20199;-70
2023/04/19 00:22:46;;;;;;;15.20;12.03;;;9.40;1.00;;;;;;8331163;28;20194;-70
2023/04/19 00:27:08;;;;;;;20.20;14.13;;;9.30;1.00;;;;;;8335708;28;20309;-70
2023/04/19 00:31:27;;;;;;;18.27;12.97;;;9.20;1.00;;;;;;8321648;28;20305;-69
2023/04/19 00:35:49;;;;;;;19.93;14.00;;;9.20;1.00;;;;;;8325821;28;20258;-68
2023/04/19 00:40:27;;;;;;;17.73;12.90;;;9.10;1.00;;;;;;8324186;28;20194;-71
2023/04/19 00:44:35;;;;;;;18.60;12.63;;;9.10;1.00;;;;;;8214436;28;20330;-70
2023/04/19 00:48:45;;;;;;;17.00;12.70;;;9.00;1.00;;;;;;8311536;28;20256;-70
2023/04/19 00:52:50;;;;;;;20.67;14.57;;;9.00;1.00;;;;;;8333783;28;20186;-70
2023/04/19 01:06:17;;;;;;;16.70;12.17;;;8.90;1.00;;;;;;8222870;28;20240;-70
2023/04/19 01:15:11;;;;;;;18.40;13.10;;;8.90;1.00;;;;;;8238883;28;20191;-71
2023/04/19 01:19:52;;;;;;;;;;;;;;;;;;;;;
2023/04/19 01:24:13;;;;;;;16.70;12.03;;;8.80;1.00;;;;;;8318152;28;20225;-67
2023/04/19 01:28:23;;;;;;;16.23;11.47;;;8.80;1.00;;;;;;8335208;28;20226;-67
2023/04/19 01:32:30;;;;;;;16.63;12.67;;;8.70;1.00;;;;;;8310609;28;20190;-68
2023/04/19 01:36:44;;;;;;;13.73;11.37;;;8.60;1.00;;;;;;8324033;28;20194;-68
2023/04/19 01:41:02;;;;;;;14.30;10.73;;;8.60;1.00;;;;;;8326335;28;20245;-69
2023/04/19 01:49:50;;;;;;;13.47;10.37;;;8.50;1.00;;;;;;8329371;28;20225;-70
2023/04/19 01:54:01;;;;;;;14.97;10.90;;;8.40;1.00;;;;;;8328487;28;20186;-67
2023/04/19 01:58:34;;;;;;;12.77;10.83;;;8.40;1.00;;;;;;8331371;28;20211;-68
2023/04/19 02:02:37;;;;;;;15.40;10.63;;;8.30;1.00;;;;;;8326894;28;20276;-68
2023/04/19 02:06:38;;;;;;;14.23;10.50;;;8.30;1.00;;;;;;8334299;28;20249;-70
2023/04/19 02:10:39;;;;;;;15.30;10.87;;;8.30;1.00;;;;;;8329052;28;20230;-69
2023/04/19 02:15:03;;;;;;;13.60;9.53;;;8.20;1.00;;;;;;8331475;28;20194;-69
2023/04/19 02:19:05;;;;;;;11.83;9.33;;;8.20;99.90;;;;;;8306489;28;20208;-69
2023/04/19 02:23:21;;;;;;;12.50;9.73;;;8.10;1.00;;;;;;8332697;28;20201;-68
2023/04/19 02:27:49;;;;;;;;;;;;;;;;;;;;;
2023/04/19 02:32:11;;;;;;;12.67;8.30;;;8.10;99.90;;;;;;8329916;28;20228;-68
2023/04/19 02:36:31;;;;;;;;;;;;;;;;;;;;;
2023/04/19 02:40:44;;;;;;;15.10;8.70;;;8.00;99.90;;;;;;8334893;28;20224;-67
2023/04/19 02:44:54;;;;;;;14.80;9.17;;;7.80;1.00;;;;;;8328960;28;20288;-68
2023/04/19 02:49:21;;;;;;;13.47;9.43;;;7.70;1.00;;;;;;8326221;28;20267;-69
2023/04/19 02:58:21;;;;;;;10.97;7.97;;;7.40;1.00;;;;;;8325055;28;20324;-69
2023/04/19 03:02:45;;;;;;;12.43;8.37;;;7.30;99.90;;;;;;8321180;28;20297;-68
2023/04/19 03:06:58;;;;;;;10.23;7.70;;;7.20;99.90;;;;;;8326947;28;20225;-68
2023/04/19 03:11:37;;;;;;;;;;;;;;;;;;;;;
2023/04/19 03:15:41;;;;;;;11.00;7.43;;;6.90;1.00;;;;;;8294721;28;20243;-68
2023/04/19 03:20:08;;;;;;;10.43;7.60;;;6.90;99.90;;;;;;8286468;28;20222;-69
2023/04/19 03:24:35;;;;;;;8.20;6.23;;;6.90;99.90;;;;;;8173318;28;20201;-69
2023/04/19 03:28:41;;;;;;;9.30;6.03;;;6.70;99.90;;;;;;8252319;28;20225;-69
2023/04/19 03:32:58;;;;;;;;;;;;;;;;;;;;;
2023/04/19 03:37:06;;;;;;;12.40;6.10;;;6.50;99.90;;;;;;8298766;28;20210;-68
2023/04/19 03:41:21;;;;;;;10.33;6.77;;;6.50;99.90;;;;;;8299770;28;20260;-68
2023/04/19 03:50:08;;;;;;;9.57;6.57;;;6.40;99.90;;;;;;8298855;28;20191;-69
2023/04/19 03:54:18;;;;;;;9.20;6.07;;;6.30;99.90;;;;;;8281301;28;20199;-69
2023/04/19 03:58:51;;;;;;;6.90;5.30;;;6.20;99.90;;;;;;8303317;28;20201;-69
2023/04/19 04:03:07;;;;;;;7.00;4.97;;;6.10;99.90;;;;;;8280049;28;20185;-69
2023/04/19 04:07:27;;;;;;;5.60;3.20;;;5.90;99.90;;;;;;8335636;28;20228;-68
2023/04/19 04:11:38;;;;;;;4.57;3.00;;;5.90;99.90;;;;;;8339533;28;20328;-67
2023/04/19 04:15:42;;;;;;;5.47;2.83;;;5.90;99.90;;;;;;8340380;28;20247;-69
2023/04/19 04:19:51;;;;;;;4.47;2.80;;;5.90;91.90;;;;;;8335278;28;20248;-68
2023/04/19 04:24:11;;;;;;;4.70;2.63;;;6.00;51.20;;;;;;8330665;28;20266;-67
2023/04/19 04:28:21;;;;;;;5.93;2.37;;;6.10;31.60;;;;;;8333462;28;20233;-69
2023/04/19 04:32:28;;;;;;;5.83;2.53;;;6.20;13.50;;;;;;8335828;28;20189;-68
2023/04/19 04:36:36;;;;;;;3.17;2.50;;;6.20;6.80;;;;;;8334263;28;20205;-69
2023/04/19 04:41:00;;;;;;;3.53;2.40;;;6.20;1.00;;;;;;8320663;28;20190;-68
2023/04/19 04:45:01;;;;;;;4.33;2.33;;;6.40;1.00;;;;;;8318416;28;20189;-68
2023/04/19 04:49:11;;;;;;;4.07;2.50;;;6.50;1.00;;;;;;8336824;28;20243;-68
2023/04/19 04:53:54;;;;;;;4.63;2.20;;;6.60;2.90;;;;;;8333275;28;20189;-68
2023/04/19 04:57:58;;;;;;;2.97;2.33;;;6.50;1.00;;;;;;8293157;28;20277;-68
2023/04/19 05:02:32;;;;;;;2.73;2.27;;;6.20;1.00;;;;;;8332813;28;20190;-68
2023/04/19 05:06:57;;;;;;;4.37;2.30;;;6.00;1.00;;;;;;8328967;28;20219;-69
2023/04/19 05:15:35;;;;;;;4.03;2.50;;;5.50;10.10;;;;;;8326461;28;20327;-68
2023/04/19 05:20:08;;;;;;;3.60;2.90;;;5.40;8.20;;;;;;8333163;28;20186;-69
2023/04/19 05:24:12;;;;;;;3.10;2.13;;;5.20;5.70;;;;;;8248912;28;20205;-67
2023/04/19 05:28:58;;;;;;;;;;;;;;;;;;;;;
2023/04/19 05:33:12;;;;;;;;;;;;;;;;;;;;;
2023/04/19 05:37:31;;;;;;;3.30;2.50;;;5.00;12.40;;;;;;8331648;28;20203;-68
2023/04/19 05:41:38;;;;;;;4.50;2.87;;;4.90;10.10;;;;;;8331760;28;20182;-68
2023/04/19 05:45:55;;;;;;;5.70;2.97;;;4.80;16.30;;;;;;8332239;28;20182;-67
2023/04/19 05:49:57;;;;;;;7.67;3.87;;;4.80;12.50;;;;;;8322680;28;20214;-69
2023/04/19 05:54:03;;;;;;;5.03;3.07;;;4.70;15.50;;;;;;8331050;28;20257;-68
2023/04/19 05:58:19;;;;;;;5.17;3.07;;;4.90;13.40;;;;;;8328983;28;20228;-67
2023/04/19 06:02:23;;;;;;;4.20;3.40;;;5.10;14.20;;;;;;8344255;28;20259;-67
2023/04/19 06:06:33;;;;;;;2.70;2.27;;;5.20;9.70;;;;;;8333032;28;20205;-68
2023/04/19 06:11:22;;;;;;;4.40;2.50;;;5.20;14.70;;;;;;8334366;28;20266;-72
2023/04/19 06:15:39;;;;;;;5.67;2.57;;;5.30;13.70;;;;;;8356215;28;20213;-72
2023/04/19 06:20:22;;;;;;;5.60;2.50;;;5.30;25.00;;;;;;8324716;28;20201;-72
2023/04/19 06:24:45;;;;;;;4.00;3.03;;;5.20;18.60;;;;;;8335613;28;20305;-73
2023/04/19 06:28:52;;;;;;;6.03;3.77;;;5.30;18.70;;;;;;8314030;28;20246;-73
2023/04/19 06:37:53;;;;;;;3.47;2.20;;;5.20;30.10;;;;;;8331022;28;20197;-74
2023/04/19 06:42:41;;;;;;;5.50;3.23;;;5.40;34.20;;;;;;8330047;28;20200;-73
2023/04/19 06:46:38;;;;;;;5.97;2.77;;;5.70;21.30;;;;;;8324367;28;20230;-72
2023/04/19 06:50:42;;;;;;;8.07;2.67;;;6.10;17.10;;;;;;8327719;28;20224;-73
2023/04/19 07:00:10;;;;;;;5.43;2.67;;;6.00;25.90;;;;;;8334284;28;20206;-71
2023/04/19 07:09:25;;;;;;;4.50;2.73;;;6.30;18.00;;;;;;8170599;28;20220;-73
2023/04/19 07:13:50;;;;;;;4.67;2.83;;;6.50;14.80;;;;;;8199909;28;20193;-72
2023/04/19 07:19:19;;;;;;;5.87;3.40;;;6.50;11.90;;;;;;8334851;28;20202;-73
2023/04/19 07:32:39;;;;;;;5.17;3.37;;;6.10;21.90;;;;;;8331994;28;20201;-73
2023/04/19 07:37:01;;;;;;;5.27;2.80;;;6.10;24.00;;;;;;8332428;28;20245;-71
2023/04/19 07:42:07;;;;;;;;;;;;;;;;;;;;;
2023/04/19 07:46:29;;;;;;;6.10;4.30;;;5.40;55.00;;;;;;8200741;28;20200;-73
2023/04/19 07:51:24;;;;;;;5.53;3.77;;;5.30;69.20;;;;;;8230559;28;20203;-72
2023/04/19 07:56:30;;;;;;;7.07;4.40;;;5.20;82.20;;;;;;8160994;28;20198;-73
2023/04/19 08:01:06;;;;;;;9.33;4.30;;;4.90;99.90;;;;;;8158744;28;20202;-72
2023/04/19 08:05:17;;;;;;;8.93;5.97;;;4.90;99.90;;;;;;8151851;28;20298;-69
2023/04/19 08:14:47;;;;;;;7.87;4.70;;;4.80;99.90;;;;;;8254206;28;20202;-70
2023/04/19 08:19:15;;;;;;;8.37;4.23;;;5.00;99.90;;;;;;8338237;28;20217;-69
2023/04/19 08:23:35;;;;;;;7.23;4.13;;;5.00;99.90;;;;;;8340714;28;20192;-70
2023/04/19 08:28:15;;;;;;;;;;;;;;;;;;;;;
2023/04/19 08:32:31;;;;;;;7.37;4.63;;;5.00;99.90;;;;;;8340654;28;20197;-69
2023/04/19 08:37:06;;;;;;;7.60;4.50;;;4.80;99.90;;;;;;8329572;28;20194;-71
2023/04/19 08:41:32;;;;;;;11.50;5.53;;;4.90;99.90;;;;;;8254028;28;20202;-69
2023/04/19 08:45:54;;;;;;;9.87;5.13;;;5.10;99.90;;;;;;8329430;28;20197;-69
2023/04/19 08:50:26;;;;;;;7.00;4.87;;;5.20;99.90;;;;;;8334725;28;20225;-70
2023/04/19 08:54:48;;;;;;;8.60;4.90;;;5.30;99.90;;;;;;8309567;28;20194;-71
2023/04/19 09:04:07;;;;;;;13.97;9.50;;;5.70;99.90;;;;;;8327550;28;20194;-70
2023/04/19 09:09:10;;;;;;;12.93;7.17;;;6.30;99.90;;;;;;8350745;28;20264;-69
2023/04/19 09:18:09;;;;;;;7.80;5.57;;;6.90;93.60;;;;;;8110984;29;20206;-69
2023/04/19 09:32:30;;;;;;;12.07;7.30;;;6.90;31.10;;;;;;8325853;28;20190;-70
2023/04/19 09:36:43;;;;;;;8.37;5.30;;;7.50;28.40;;;;;;8331427;28;20190;-71
2023/04/19 09:40:52;;;;;;;10.93;7.00;;;7.40;26.10;;;;;;8318277;28;20194;-70
2023/04/19 09:45:00;;;;;;;11.07;6.27;;;7.40;12.40;;;;;;8334491;28;20186;-70
2023/04/19 09:49:25;;;;;;;7.83;5.80;;;7.70;10.00;;;;;;8340251;28;20288;-70
2023/04/19 09:53:52;;;;;;;8.20;5.33;;;7.60;12.90;;;;;;8348013;28;20300;-69
2023/04/19 09:58:17;;;;;;;10.93;6.87;;;7.40;13.10;;;;;;8302017;28;20215;-71
2023/04/19 10:02:26;;;;;;;13.73;7.97;;;7.00;40.70;;;;;;8333387;28;20202;-70
2023/04/19 10:06:36;;;;;;;11.30;6.37;;;7.10;43.30;;;;;;8328898;28;20319;-70
2023/04/19 10:10:57;;;;;;;9.90;7.37;;;7.00;42.50;;;;;;8331902;28;20197;-68
2023/04/19 10:15:04;;;;;;;9.50;6.13;;;6.70;77.60;;;;;;8328937;28;20272;-70
2023/04/19 10:19:19;;;;;;;9.10;6.50;;;6.60;90.70;;;;;;8336466;28;20352;-71
2023/04/19 10:24:03;;;;;;;12.70;8.43;;;6.30;99.90;;;;;;8355324;28;20185;-72
2023/04/19 10:33:03;;;;;;;8.77;5.90;;;6.70;99.90;;;;;;8209070;28;20233;-71
2023/04/19 10:37:38;;;;;;;9.43;6.60;;;6.70;99.90;;;;;;8322364;28;20201;-71
2023/04/19 10:52:28;;;;;;;10.63;6.30;;;6.30;99.90;;;;;;8328140;28;20223;-73
2023/04/19 10:57:29;;;;;;;7.37;6.43;;;5.90;99.90;;;;;;8254178;28;20206;-74
2023/04/19 11:07:01;;;;;;;9.67;6.80;;;5.80;99.90;;;;;;8208278;28;20299;-72
2023/04/19 11:11:27;;;;;;;5.03;3.83;;;5.90;99.90;;;;;;8155673;28;20225;-73
2023/04/19 11:15:53;;;;;;;5.30;3.37;;;5.90;99.90;;;;;;8292203;28;20191;-72
2023/04/19 11:20:07;;;;;;;5.30;3.43;;;6.00;99.90;;;;;;8290201;28;20195;-73
2023/04/19 11:24:09;;;;;;;4.43;3.90;;;5.90;99.90;;;;;;8300560;28;20226;-73
2023/04/19 11:28:54;;;;;;;5.80;4.37;;;5.80;99.90;;;;;;8347453;28;20263;-72
2023/04/19 11:32:58;;;;;;;8.17;5.33;;;5.70;1.00;;;;;;8355791;28;20218;-73
2023/04/19 11:37:41;;;;;;;6.43;4.93;;;5.80;1.00;;;;;;8350348;28;20205;-72
2023/04/19 11:42:31;;;;;;;7.77;5.40;;;5.70;1.00;;;;;;8341791;28;20198;-71
2023/04/19 11:47:11;;;;;;;9.27;5.97;;;5.70;1.00;;;;;;8288028;28;20191;-71
2023/04/19 11:51:46;;;;;;;13.13;7.10;;;5.40;1.00;;;;;;8266520;28;20191;-71
2023/04/19 11:55:51;;;;;;;9.43;6.63;;;5.10;99.90;;;;;;8308525;22;20319;-70
2023/04/19 12:00:36;;;;;;;5.37;4.57;;;5.10;99.90;;;;;;8280300;28;20218;-72
2023/04/19 12:05:11;;;;;;;5.67;5.07;;;4.90;99.90;;;;;;8265540;28;20214;-71
2023/04/19 12:09:49;;;;;;;7.03;5.57;;;5.00;99.90;;;;;;8285896;28;20329;-70
2023/04/19 12:14:33;;;;;;;7.00;5.47;;;5.10;99.90;;;;;;8189016;28;20255;-71
2023/04/19 12:18:53;;;;;;;7.30;5.70;;;5.40;90.20;;;;;;8273434;28;20256;-71
2023/04/19 12:27:28;;;;;;;8.60;5.80;;;5.40;1.00;;;;;;8297776;28;20242;-71
2023/04/19 12:32:01;;;;;;;9.37;6.37;;;5.60;1.00;;;;;;8298386;28;20195;-69
2023/04/19 12:36:59;;;;;;;9.00;5.60;;;5.60;1.00;;;;;;8287007;28;20191;-73
2023/04/19 12:40:36;;;;;;;13.57;8.77;;;5.50;1.00;;;;;;8292983;28;20222;-70
2023/04/19 12:44:44;;;;;;;7.00;5.10;;;5.40;99.90;;;;;;8284950;28;20179;-72
2023/04/19 12:48:54;;;;;;;7.53;3.77;;;5.30;20.70;;;;;;8287285;28;20219;-71
2023/04/19 12:53:32;;;;;;;3.43;3.00;;;5.00;99.90;;;;;;8282543;28;20190;-70
2023/04/19 12:57:42;;;;;;;4.70;3.60;;;4.90;1.00;;;;;;8299780;28;20305;-69
2023/04/19 13:01:53;;;;;;;3.67;3.37;;;4.90;99.90;;;;;;8314099;28;20195;-70
2023/04/19 13:06:14;;;;;;;5.33;3.77;;;5.10;19.40;;;;;;8313771;28;20189;-70
2023/04/19 13:10:52;;;;;;;5.43;3.90;;;5.30;1.00;;;;;;8304841;28;20229;-71
2023/04/19 13:14:57;;;;;;;5.53;4.53;;;5.70;1.00;;;;;;8317559;28;20202;-71
2023/04/19 13:19:40;;;;;;;6.97;4.80;;;6.00;99.90;;;;;;8311353;28;20182;-71
2023/04/19 13:24:05;;;;;;;16.40;10.73;;;5.90;99.90;;;;;;8323843;28;20174;-70
2023/04/19 13:28:17;;;;;;;6.80;5.37;;;5.60;99.90;;;;;;8323479;28;20297;-70
2023/04/19 13:32:21;;;;;;;8.83;6.57;;;5.20;99.90;;;;;;8313861;28;20201;-70
2023/04/19 13:36:40;;;;;;;8.40;6.10;;;5.20;99.90;;;;;;8308125;28;20194;-71
2023/04/19 13:41:08;;;;;;;8.40;5.13;;;5.20;99.90;;;;;;8314233;28;20194;-70
2023/04/19 13:45:42;;;;;;;7.37;6.17;;;5.30;99.90;;;;;;8279262;28;20327;-70
2023/04/19 13:49:57;;;;;;;8.43;6.40;;;5.40;99.90;;;;;;8303262;28;20222;-69
2023/04/19 13:54:08;;;;;;;9.17;4.40;;;5.50;1.00;;;;;;8326962;28;20434;-71
2023/04/19 13:58:35;;;;;;;5.33;4.70;;;5.50;99.90;;;;;;8370828;22;20240;-72
2023/04/19 14:02:56;;;;;;;9.57;6.37;;;5.40;99.90;;;;;;8325609;28;20195;-69
2023/04/19 14:07:11;;;;;;;7.70;5.00;;;5.50;1.00;;;;;;8348882;28;20291;-70
2023/04/19 14:11:16;;;;;;;7.90;5.40;;;5.80;99.90;;;;;;8329238;28;20188;-70
2023/04/19 14:15:22;;;;;;;10.37;7.77;;;6.10;94.80;;;;;;8326112;28;20289;-70
2023/04/19 14:19:40;;;;;;;10.67;6.47;;;6.50;1.00;;;;;;8326760;28;20185;-71
2023/04/19 14:24:04;;;;;;;7.43;4.50;;;6.80;1.00;;;;;;8316987;28;20429;-71
2023/04/19 14:28:08;;;;;;;7.60;5.33;;;6.40;99.90;;;;;;8323077;28;20307;-70
2023/04/19 14:37:16;;;;;;;6.33;4.97;;;6.00;1.00;;;;;;8319104;28;20209;-71
2023/04/19 14:41:23;;;;;;;4.83;4.03;;;5.70;97.00;;;;;;8301414;28;20194;-71
2023/04/19 14:46:12;;;;;;;6.00;4.77;;;5.40;99.90;;;;;;8289603;28;20191;-71
2023/04/19 14:50:56;;;;;;;7.40;5.03;;;5.30;1.00;;;;;;8175346;28;20319;-71
2023/04/19 14:55:33;;;;;;;7.00;5.20;;;5.30;43.90;;;;;;8228993;28;20202;-70
2023/04/19 14:59:37;;;;;;;5.33;4.37;;;5.20;49.00;;;;;;8169709;28;20292;-71
2023/04/19 15:03:57;;;;;;;;;;;;;;;;;;;;;
2023/04/19 15:13:32;;;;;;;;;;;;;;;;;;;;;
2023/04/19 15:18:25;;;;;;;5.23;4.30;;;5.40;99.90;;;;;;8182559;28;20235;-71
2023/04/19 15:22:29;;;;;;;5.20;3.60;;;5.40;99.90;;;;;;8259224;28;20230;-71
2023/04/19 15:26:49;;;;;;;15.23;11.20;;;5.20;22.90;;;;;;8270924;28;20183;-72
2023/04/19 15:31:26;;;;;;;7.87;4.33;;;5.10;22.20;;;;;;8298738;28;20207;-71
2023/04/19 15:36:23;;;;;;;5.93;4.20;;;5.10;1.00;;;;;;8284689;28;20196;-71
2023/04/19 15:40:29;;;;;;;5.10;4.20;;;5.10;99.90;;;;;;8278734;28;20198;-70
2023/04/19 15:45:25;;;;;;;5.90;4.30;;;5.10;99.90;;;;;;8297691;28;20194;-72
2023/04/19 15:50:03;;;;;;;;;;;;;;;;;;;;;
2023/04/19 15:54:10;;;;;;;6.17;4.33;;;5.20;99.90;;;;;;8300015;28;20183;-72
2023/04/19 15:59:22;;;;;;;6.53;4.40;;;5.20;99.90;;;;;;8314141;28;20230;-69
2023/04/19 16:03:26;;;;;;;5.87;4.10;;;5.30;99.90;;;;;;8227779;28;20206;-71
2023/04/19 16:07:36;;;;;;;4.80;4.30;;;5.30;99.90;;;;;;8253149;28;20207;-72
2023/04/19 16:12:03;;;;;;;;;;;;;;;;;;;;;
2023/04/19 16:16:36;;;;;;;6.07;4.90;;;5.30;99.90;;;;;;8263926;28;20227;-70
2023/04/19 16:25:52;;;;;;;10.17;6.07;;;5.20;99.90;;;;;;8197866;28;20188;-71
2023/04/19 16:30:19;;;;;;;11.37;5.90;;;5.20;99.90;;;;;;8144680;28;20233;-72
2023/04/19 16:35:08;;;;;;;;;;;;;;;;;;;;;
2023/04/19 16:39:53;;;;;;;;;;;;;;;;;;;;;
2023/04/19 16:49:46;;;;;;;4.77;4.07;;;5.20;99.90;;;;;;8205884;28;20246;-70
2023/04/19 16:54:23;;;;;;;6.47;5.17;;;5.20;1.00;;;;;;8222940;28;20245;-70
2023/04/19 16:59:02;;;;;;;5.03;4.40;;;5.10;1.00;;;;;;8510059;22;20222;-70
2023/04/19 17:03:15;;;;;;;5.93;4.57;;;5.10;99.90;;;;;;8313179;28;20198;-70
2023/04/19 17:08:23;;;;;;;;;;;;;;;;;;;;;
2023/04/19 17:13:12;;;;;;;19.63;11.57;;;5.20;99.90;;;;;;8169401;28;20218;-72
2023/04/19 17:17:13;;;;;;;5.27;4.73;;;5.30;1.00;;;;;;8152323;28;20203;-71
2023/04/19 17:21:35;;;;;;;6.00;4.83;;;5.30;1.00;;;;;;8167705;28;20213;-72
2023/04/19 17:26:00;;;;;;;6.90;6.20;;;5.30;99.90;;;;;;8167552;28;20202;-71
2023/04/19 17:30:13;;;;;;;6.60;5.87;;;5.20;1.00;;;;;;8150687;28;20245;-67
2023/04/19 17:34:38;;;;;;;10.10;6.53;;;5.20;1.00;;;;;;8221604;28;20201;-66
2023/04/19 17:38:43;;;;;;;7.27;5.63;;;5.20;9.80;;;;;;8291375;28;20286;-67
2023/04/19 17:43:19;;;;;;;8.27;6.57;;;5.10;1.00;;;;;;8316053;28;20196;-66
2023/04/19 17:47:38;;;;;;;11.27;7.47;;;5.10;99.90;;;;;;8312901;28;20206;-66
2023/04/19 17:51:57;;;;;;;11.20;8.53;;;5.10;1.00;;;;;;8316291;28;20193;-66
2023/04/19 17:56:11;;;;;;;12.77;8.97;;;5.00;14.50;;;;;;8319795;28;20246;-66
2023/04/19 18:00:30;;;;;;;18.53;11.67;;;5.00;99.90;;;;;;8312486;28;20204;-66
2023/04/19 18:04:33;;;;;;;44.37;26.43;;;5.10;99.90;;;;;;8314194;28;20194;-67
2023/04/19 18:13:35;;;;;;;50.20;29.87;;;5.00;1.00;;;;;;8330984;28;20189;-66
2023/04/19 18:17:36;;;;;;;42.90;28.03;;;5.00;15.40;;;;;;8316647;28;20186;-67
2023/04/19 18:22:07;;;;;;;26.10;16.00;;;5.00;24.20;;;;;;8313298;28;20193;-66
2023/04/19 18:26:11;;;;;;;37.10;23.70;;;5.00;81.60;;;;;;8326304;28;20203;-67
2023/04/19 18:30:24;;;;;;;31.33;21.63;;;5.00;1.00;;;;;;8312100;28;20228;-67
2023/04/19 18:34:29;;;;;;;30.87;19.37;;;5.00;1.00;;;;;;8322922;28;20190;-68
2023/04/19 18:43:35;;;;;;;41.10;27.50;;;5.00;1.00;;;;;;8331828;28;20182;-67
2023/04/19 18:47:46;;;;;;;29.47;19.27;;;4.90;99.90;;;;;;8310714;28;20269;-66
2023/04/19 18:56:08;;;;;;;29.23;20.60;;;4.90;99.90;;;;;;8325181;28;20211;-68
2023/04/19 19:00:18;;;;;;;47.80;28.87;;;4.90;99.90;;;;;;8295487;28;20205;-66
2023/04/19 19:04:37;;;;;;;43.33;26.23;;;4.90;1.00;;;;;;8304228;28;20205;-67
2023/04/19 19:09:16;;;;;;;27.83;18.37;;;4.90;1.00;;;;;;8323096;28;20213;-66
2023/04/19 19:13:18;;;;;;;29.07;20.60;;;4.90;24.20;;;;;;8213004;28;20194;-66
2023/04/19 19:17:27;;;;;;;29.70;21.87;;;5.00;99.90;;;;;;8304212;28;20189;-68
2023/04/19 19:21:32;;;;;;;19.03;14.37;;;5.00;99.90;;;;;;8264509;28;20191;-66
2023/04/19 19:25:59;;;;;;;15.53;12.33;;;5.00;99.90;;;;;;8248344;28;20250;-67
2023/04/19 19:30:10;;;;;;;13.13;10.47;;;5.00;99.90;;;;;;8248675;28;20274;-66
2023/04/19 19:34:40;;;;;;;13.47;8.83;;;5.00;99.90;;;;;;8249943;28;20217;-67
2023/04/19 19:38:44;;;;;;;9.60;7.60;;;5.00;99.90;;;;;;8243941;28;20214;-67
2023/04/19 19:43:08;;;;;;;12.53;9.63;;;5.00;99.90;;;;;;8212663;28;20203;-68
2023/04/19 19:47:10;;;;;;;34.03;18.97;;;5.00;99.90;;;;;;8186529;28;20231;-67
2023/04/19 19:51:31;;;;;;;37.10;22.83;;;5.00;99.90;;;;;;8234530;28;20223;-67
2023/04/19 19:55:32;;;;;;;35.07;21.40;;;5.00;99.90;;;;;;8250535;28;20237;-67
2023/04/19 20:04:10;;;;;;;43.80;26.13;;;5.00;99.90;;;;;;8270797;28;20189;-66
2023/04/19 20:08:18;;;;;;;34.40;23.33;;;5.00;99.90;;;;;;8238508;28;20231;-66
2023/04/19 20:13:04;;;;;;;33.43;24.03;;;5.00;99.90;;;;;;8290103;28;20333;-67
2023/04/19 20:17:34;;;;;;;26.57;19.67;;;5.00;99.90;;;;;;8319117;28;20196;-66
2023/04/19 20:22:00;;;;;;;27.30;17.57;;;5.00;99.90;;;;;;8312384;28;20186;-70
2023/04/19 20:26:03;;;;;;;23.23;16.27;;;5.00;99.90;;;;;;8310713;28;20188;-70
2023/04/19 20:30:13;;;;;;;24.83;16.90;;;4.90;99.90;;;;;;8292931;28;20223;-70
2023/04/19 20:34:23;;;;;;;18.80;13.13;;;4.90;99.90;;;;;;8295594;28;20195;-70
2023/04/19 20:39:36;;;;;;;16.20;11.93;;;4.80;99.90;;;;;;8304425;28;20226;-67
2023/04/19 20:43:58;;;;;;;;;;;;;;;;;;;;;
2023/04/19 20:52:39;;;;;;;;;;;;;;;;;;;;;
2023/04/19 20:57:03;;;;;;;48.23;24.93;;;5.00;99.90;;;;;;8327829;28;20248;-68
2023/04/19 21:01:55;;;;;;;;;;;;;;;;;;;;;
2023/04/19 21:05:56;;;;;;;33.07;20.63;;;5.00;99.90;;;;;;8335302;28;20234;-70
2023/04/19 21:10:25;;;;;;;37.70;22.20;;;4.90;99.90;;;;;;8314063;28;20211;-68
2023/04/19 21:14:51;;;;;;;71.90;31.07;;;4.90;99.90;;;;;;8319905;28;20197;-69
2023/04/19 21:19:32;;;;;;;28.80;18.97;;;4.90;99.90;;;;;;8315733;28;20323;-66
2023/04/19 21:23:41;;;;;;;19.90;15.27;;;4.90;99.90;;;;;;8312028;28;20205;-66
2023/04/19 21:28:21;;;;;;;17.60;12.40;;;4.80;99.90;;;;;;8319696;28;20202;-66
2023/04/19 21:32:53;;;;;;;18.00;12.37;;;4.70;99.90;;;;;;8338197;28;20275;-67
2023/04/19 21:37:33;;;;;;;15.63;11.90;;;4.50;99.90;;;;;;8315990;28;20193;-67
2023/04/19 21:41:41;;;;;;;16.30;12.57;;;4.30;99.90;;;;;;8305446;28;20281;-69
2023/04/19 21:45:42;;;;;;;16.40;13.07;;;4.00;99.90;;;;;;8317429;28;20198;-70
2023/04/19 21:49:54;;;;;;;47.87;22.17;;;3.80;99.90;;;;;;8321338;28;20209;-69
2023/04/19 21:54:25;;;;;;;74.10;30.50;;;3.60;99.90;;;;;;8334422;28;20199;-67
2023/04/19 21:58:55;;;;;;;33.30;17.93;;;3.40;99.90;;;;;;8313673;28;20221;-67
2023/04/19 22:03:19;;;;;;;18.57;12.27;;;3.10;99.90;;;;;;8300564;28;20244;-68
2023/04/19 22:07:37;;;;;;;12.07;8.53;;;2.90;59.60;;;;;;8326262;28;20209;-68
2023/04/19 22:11:46;;;;;;;25.10;15.23;;;2.70;1.00;;;;;;8311157;28;20287;-68
2023/04/19 22:15:47;;;;;;;35.10;19.93;;;2.60;42.00;;;;;;8310095;28;20276;-67
2023/04/19 22:19:54;;;;;;;42.77;21.33;;;2.50;99.90;;;;;;8311302;28;20181;-68
2023/04/19 22:24:14;;;;;;;41.57;22.40;;;2.40;99.90;;;;;;8328542;28;20278;-68
2023/04/19 22:28:15;;;;;;;25.90;14.57;;;2.30;99.90;;;;;;8306582;28;20353;-68
2023/04/19 22:32:22;;;;;;;13.97;10.40;;;2.20;99.90;;;;;;8309031;28;20197;-69
2023/04/19 22:36:30;;;;;;;14.70;9.83;;;2.00;99.90;;;;;;8293197;28;20225;-68
2023/04/19 22:40:40;;;;;;;9.07;7.43;;;1.90;99.90;;;;;;8326664;28;20197;-67
2023/04/19 22:45:07;;;;;;;8.23;6.83;;;1.80;99.90;;;;;;8307956;28;20338;-68
2023/04/19 22:49:34;;;;;;;8.83;7.10;;;1.70;99.90;;;;;;8264744;28;20221;-67
2023/04/19 22:53:53;;;;;;;8.93;6.57;;;1.60;99.90;;;;;;8312047;28;20190;-69
2023/04/19 22:58:35;;;;;;;10.00;7.80;;;1.50;99.90;;;;;;8311672;28;20213;-69
2023/04/19 23:03:00;;;;;;;11.70;8.50;;;1.50;99.90;;;;;;8310183;28;20193;-68
2023/04/19 23:07:06;;;;;;;11.13;7.33;;;1.40;99.90;;;;;;8312341;28;20190;-69
2023/04/19 23:11:28;;;;;;;13.17;8.60;;;1.30;99.90;;;;;;8308588;28;20201;-69
2023/04/19 23:15:55;;;;;;;11.53;8.13;;;1.20;99.90;;;;;;8316280;28;20239;-70
2023/04/19 23:20:35;;;;;;;10.83;8.37;;;1.10;99.90;;;;;;8307891;28;20240;-68
2023/04/19 23:24:42;;;;;;;11.97;8.77;;;1.10;99.90;;;;;;8273427;28;20201;-69
2023/04/19 23:28:56;;;;;;;12.63;8.50;;;1.10;99.90;;;;;;8318130;28;20224;-68
2023/04/19 23:33:27;;;;;;;10.43;8.43;;;1.00;99.90;;;;;;8319968;28;20219;-68
2023/04/19 23:37:35;;;;;;;13.23;9.20;;;0.90;99.90;;;;;;8311939;28;20195;-67
2023/04/19 23:41:45;;;;;;;11.47;8.43;;;0.90;99.90;;;;;;8314695;28;20202;-68
2023/04/19 23:45:51;;;;;;;12.03;8.33;;;0.80;99.90;;;;;;8315291;28;20190;-68
2023/04/19 23:49:53;;;;;;;11.47;8.60;;;0.80;99.90;;;;;;8312563;28;20221;-68
2023/04/19 23:53:56;;;;;;;13.53;9.23;;;0.80;99.90;;;;;;8332667;28;20185;-68
2023/04/19 23:58:03;;;;;;;12.27;9.50;;;0.90;99.90;;;;;;8326820;28;20208;-68
